Time;durP1;ratioP1;P1;durP2;ratioP2;P2;SDS_P1;SDS_P2;PMS_P1;PMS_P2;Temp;Humidity;BMP_temperature;BMP_pressure;BME280_temperature;BME280_humidity;BME280_pressure;Samples;Min_cycle;Max_cycle;Signal;HPM_P1;HPM_P2
2022/07/28 00:04:35;;;;;;;1.05;0.55;;;;;;;18.89;71.80;101815.28;21046532;28;20515;-75
2022/07/28 00:14:37;;;;;;;1.25;0.80;;;;;;;18.88;71.77;101806.31;21046281;28;20135;-75
2022/07/28 00:24:38;;;;;;;0.60;0.45;;;;;;;18.88;71.89;101798.22;21047474;28;20443;-76
2022/07/28 00:34:40;;;;;;;0.82;0.50;;;;;;;18.88;71.74;101802.78;21046965;28;20455;-75
2022/07/28 00:44:42;;;;;;;1.40;0.65;;;;;;;18.88;71.61;101795.53;21030111;28;20157;-75
2022/07/28 00:54:44;;;;;;;0.70;0.50;;;;;;;18.79;71.60;101780.94;21044327;28;20561;-76
2022/07/28 01:04:46;;;;;;;1.10;0.55;;;;;;;18.62;71.59;101751.72;21042374;28;20114;-75
2022/07/28 01:14:49;;;;;;;0.80;0.50;;;;;;;18.79;71.36;101777.38;21043946;28;20044;-75
2022/07/28 01:25:17;;;;;;;1.17;0.50;;;;;;;18.85;71.28;101784.97;21043458;28;20451;-75
2022/07/28 01:35:22;;;;;;;0.65;0.60;;;;;;;18.86;71.26;101780.47;21041107;28;20040;-75
2022/07/28 01:45:25;;;;;;;0.77;0.52;;;;;;;18.69;71.28;101747.56;21000993;28;20143;-75
2022/07/28 01:55:27;;;;;;;0.60;0.40;;;;;;;18.85;71.02;101760.69;21041032;28;20135;-75
2022/07/28 02:05:28;;;;;;;0.73;0.60;;;;;;;18.79;70.65;101750.41;21039762;28;20113;-75
2022/07/28 02:15:31;;;;;;;0.68;0.60;;;;;;;18.84;70.86;101756.28;21026211;28;20048;-74
2022/07/28 02:25:34;;;;;;;0.60;0.40;;;;;;;18.60;70.54;101710.53;21038792;28;20056;-75
2022/07/28 02:35:40;;;;;;;0.38;0.38;;;;;;;18.83;70.78;101743.78;21037128;28;20052;-75
2022/07/28 02:45:45;;;;;;;0.90;0.55;;;;;;;18.75;70.65;101730.03;21040594;28;20044;-75
2022/07/28 02:55:48;;;;;;;0.53;0.53;;;;;;;18.82;70.58;101752.84;21053103;28;20086;-75
2022/07/28 03:05:49;;;;;;;0.80;0.60;;;;;;;18.81;70.55;101753.81;21009900;28;20044;-75
2022/07/28 03:15:51;;;;;;;2.15;0.80;;;;;;;18.79;70.50;101756.66;20910903;28;20131;-75
2022/07/28 03:25:56;;;;;;;0.90;0.47;;;;;;;18.61;70.81;101740.09;20909551;28;20501;-74
2022/07/28 03:36:00;;;;;;;0.80;0.50;;;;;;;18.80;70.72;101760.22;20931310;28;20394;-74
2022/07/28 03:46:02;;;;;;;1.02;0.60;;;;;;;18.79;70.80;101758.50;20968491;28;20102;-74
2022/07/28 03:56:04;;;;;;;1.27;0.60;;;;;;;18.76;70.70;101750.66;20930329;28;20068;-74
2022/07/28 04:06:07;;;;;;;1.30;0.57;;;;;;;18.80;70.52;101752.13;20905386;28;20049;-74
2022/07/28 04:16:08;;;;;;;0.73;0.60;;;;;;;18.78;70.49;101765.75;20914802;28;20171;-74
2022/07/28 04:26:35;;;;;;;0.95;0.70;;;;;;;18.78;70.32;101770.25;20919236;28;20080;-74
2022/07/28 04:36:40;;;;;;;0.40;0.40;;;;;;;18.77;70.30;101765.84;20909424;28;20056;-75
2022/07/28 04:46:43;;;;;;;1.20;0.50;;;;;;;18.77;70.16;101771.25;20895736;28;20044;-74
2022/07/28 04:56:45;;;;;;;0.47;0.47;;;;;;;18.73;70.16;101764.38;20911678;28;20063;-74
2022/07/28 05:06:46;;;;;;;1.35;0.50;;;;;;;18.77;70.06;101784.72;20914052;28;20511;-74
2022/07/28 05:16:48;;;;;;;0.73;0.70;;;;;;;18.72;69.88;101773.44;20921835;28;20048;-74
2022/07/28 05:26:50;;;;;;;0.60;0.52;;;;;;;17.89;69.89;101641.41;20905352;28;20057;-76
2022/07/28 05:36:51;;;;;;;0.43;0.43;;;;;;;18.76;69.80;101780.31;20894220;28;20084;-76
2022/07/28 05:46:53;;;;;;;0.60;0.52;;;;;;;18.65;70.01;101782.03;20882360;28;20088;-76
2022/07/28 05:56:54;;;;;;;1.92;0.60;;;;;;;18.76;70.50;101800.03;20889067;28;20083;-75
2022/07/28 06:06:56;;;;;;;2.03;0.85;;;;;;;18.80;71.45;101803.38;20889479;28;20048;-75
2022/07/28 06:16:58;;;;;;;0.70;0.63;;;;;;;18.82;71.41;101801.41;20887802;28;20591;-76
2022/07/28 06:27:01;;;;;;;1.45;0.43;;;;;;;18.71;71.83;101783.34;20887729;28;20060;-75
2022/07/28 06:37:04;;;;;;;0.93;0.47;;;;;;;18.84;72.19;101811.13;20904291;28;20067;-75
2022/07/28 06:47:05;;;;;;;1.48;0.60;;;;;;;18.87;72.60;101806.47;20907877;28;20103;-76
2022/07/28 06:57:08;;;;;;;0.50;0.50;;;;;;;18.59;72.68;101757.38;20905076;28;20476;-75
2022/07/28 07:07:10;;;;;;;0.40;0.40;;;;;;;18.83;72.80;101795.03;20890415;28;20409;-75
2022/07/28 07:17:17;;;;;;;4.03;1.15;;;;;;;18.92;72.70;101802.41;20911733;28;20122;-74
2022/07/28 07:27:19;;;;;;;1.30;0.50;;;;;;;18.93;72.67;101798.72;20917489;28;20505;-75
2022/07/28 07:37:21;;;;;;;0.45;0.32;;;;;;;18.95;72.68;101785.97;20906999;28;20057;-74
2022/07/28 07:47:22;;;;;;;0.82;0.40;;;;;;;18.99;72.51;101781.22;20911617;28;20067;-75
2022/07/28 07:57:24;;;;;;;0.80;0.52;;;;;;;19.01;72.50;101786.50;20910503;28;20055;-75
2022/07/28 08:07:25;;;;;;;0.93;0.60;;;;;;;19.03;72.39;101779.16;20891881;28;20147;-74
2022/07/28 08:17:27;;;;;;;0.75;0.22;;;;;;;19.07;72.33;101786.03;20901487;28;20051;-75
2022/07/28 08:27:28;;;;;;;0.82;0.45;;;;;;;19.15;72.05;101775.47;20897623;28;20390;-75
2022/07/28 08:37:30;;;;;;;1.58;0.85;;;;;;;19.21;71.80;101769.56;20901432;28;20057;-78
2022/07/28 08:47:34;;;;;;;1.85;1.17;;;;;;;19.25;71.84;101771.03;20902691;28;20056;-75
2022/07/28 08:57:55;;;;;;;0.95;0.43;;;;;;;18.91;71.61;101719.72;20887784;28;20389;-75
2022/07/28 09:07:59;;;;;;;0.80;0.40;;;;;;;19.20;71.44;101772.38;20895584;28;20485;-75
2022/07/28 09:18:02;;;;;;;1.25;0.35;;;;;;;19.04;71.57;101746.63;20873586;28;20064;-74
2022/07/28 09:28:06;;;;;;;1.08;0.40;;;;;;;19.15;71.52;101769.19;20887931;28;20048;-74
2022/07/28 09:38:08;;;;;;;0.80;0.47;;;;;;;19.15;71.64;101759.28;20903354;28;20806;-74
2022/07/28 09:48:12;;;;;;;1.33;0.40;;;;;;;19.14;71.60;101773.75;20901002;28;20629;-74
2022/07/28 09:58:14;;;;;;;0.70;0.40;;;;;;;19.14;71.49;101765.66;20892138;28;20587;-74
2022/07/28 10:08:15;;;;;;;0.70;0.50;;;;;;;19.13;71.54;101762.06;20901915;28;20490;-75
2022/07/28 10:18:17;;;;;;;1.23;0.40;;;;;;;19.11;71.37;101745.16;20911354;28;20048;-74
2022/07/28 10:28:21;;;;;;;0.68;0.47;;;;;;;19.16;71.42;101743.91;20910069;28;20083;-74
2022/07/28 10:38:33;;;;;;;1.00;0.60;;;;;;;19.17;71.43;101740.22;20914052;28;20053;-74
2022/07/28 10:48:36;;;;;;;0.93;0.63;;;;;;;19.19;71.42;101728.34;20910864;28;20724;-74
2022/07/28 10:59:02;;;;;;;0.45;0.45;;;;;;;19.21;71.29;101726.38;20908298;28;20778;-75
2022/07/28 11:09:14;;;;;;;1.10;0.43;;;;;;;19.20;71.36;101724.66;20902401;28;20056;-75
2022/07/28 11:19:17;;;;;;;1.00;0.50;;;;;;;19.13;71.17;101709.94;20923212;28;20549;-75
2022/07/28 11:29:46;;;;;;;0.90;0.60;;;;;;;19.20;71.03;101716.56;20918417;28;20051;-74
2022/07/28 11:39:47;;;;;;;1.17;0.60;;;;;;;19.23;70.41;101712.78;20914971;28;20527;-75
2022/07/28 11:50:08;;;;;;;0.70;0.52;;;;;;;19.25;70.24;101708.94;20905269;28;20048;-75
2022/07/28 12:00:10;;;;;;;1.38;0.40;;;;;;;19.26;69.37;101694.47;20909349;28;20067;-75
2022/07/28 12:10:34;;;;;;;2.13;0.60;;;;;;;19.28;69.18;101692.50;20907722;28;20045;-75
2022/07/28 12:20:56;;;;;;;1.92;0.50;;;;;;;19.28;70.06;101689.78;20893952;28;20051;-75
2022/07/28 12:31:11;;;;;;;0.80;0.50;;;;;;;19.27;69.67;101690.78;20900161;28;20082;-75
2022/07/28 12:41:14;;;;;;;1.35;0.77;;;;;;;19.27;69.57;101677.28;20920341;28;20044;-75
2022/07/28 12:51:33;;;;;;;2.00;0.82;;;;;;;19.33;68.81;101683.16;20917749;28;20044;-75
2022/07/28 13:01:49;;;;;;;1.67;0.75;;;;;;;19.34;68.73;101674.06;20927855;28;20049;-75
2022/07/28 13:11:50;;;;;;;0.68;0.50;;;;;;;19.34;67.61;101664.13;20925244;28;20051;-75
2022/07/28 13:21:56;;;;;;;0.82;0.40;;;;;;;19.36;67.90;101658.59;20896795;28;20059;-75
2022/07/28 13:32:04;;;;;;;0.60;0.47;;;;;;;19.10;66.91;101597.69;20925688;28;20123;-76
2022/07/28 13:42:07;;;;;;;0.88;0.50;;;;;;;19.16;66.27;101603.56;20906672;28;20078;-76
2022/07/28 13:52:15;;;;;;;1.27;0.57;;;;;;;19.37;65.71;101628.78;20942212;28;20052;-75
2022/07/28 14:02:29;;;;;;;1.45;0.55;;;;;;;19.36;65.94;101621.66;20930404;28;20110;-76
2022/07/28 14:12:31;;;;;;;3.15;0.50;;;;;;;19.41;65.25;101618.56;20914713;28;20068;-76
2022/07/28 14:22:33;;;;;;;1.40;0.60;;;;;;;19.42;65.20;101625.69;20931502;28;20059;-76
2022/07/28 14:32:34;;;;;;;0.98;0.68;;;;;;;19.44;65.31;101623.69;20932941;28;20044;-76
2022/07/28 14:42:36;;;;;;;2.30;0.50;;;;;;;19.46;65.12;101618.19;20926568;28;20052;-75
2022/07/28 14:52:38;;;;;;;1.40;0.57;;;;;;;19.44;66.04;101612.91;20917685;28;20055;-76
2022/07/28 15:02:40;;;;;;;0.93;0.60;;;;;;;19.43;66.36;101611.19;20901922;28;20068;-76
2022/07/28 15:12:41;;;;;;;1.33;0.55;;;;;;;18.83;66.45;101506.38;20920391;28;20131;-76
2022/07/28 15:22:43;;;;;;;0.98;0.70;;;;;;;19.38;66.62;101602.63;20913607;28;20048;-76
2022/07/28 15:32:44;;;;;;;0.47;0.40;;;;;;;19.35;66.99;101583.97;20887036;28;20516;-76
2022/07/28 15:42:57;;;;;;;1.50;0.50;;;;;;;19.33;67.02;101578.72;20879784;28;20044;-75
2022/07/28 15:52:59;;;;;;;1.33;0.40;;;;;;;19.33;67.57;101569.75;20881365;28;20053;-76
2022/07/28 16:03:01;;;;;;;0.73;0.63;;;;;;;19.33;68.01;101561.66;20908127;28;20056;-75
2022/07/28 16:13:02;;;;;;;1.27;0.60;;;;;;;19.33;68.15;101569.75;20895781;28;20099;-76
2022/07/28 16:23:04;;;;;;;1.13;0.52;;;;;;;19.31;68.49;101569.03;20874510;28;20059;-76
2022/07/28 16:33:07;;;;;;;1.65;0.75;;;;;;;19.31;68.94;101558.22;20878420;28;20060;-75
2022/07/28 16:43:08;;;;;;;0.40;0.40;;;;;;;19.30;69.09;101572.72;20867999;28;20068;-75
2022/07/28 16:53:11;;;;;;;2.35;0.57;;;;;;;19.24;69.49;101558.75;20863234;28;20879;-74
2022/07/28 17:03:14;;;;;;;0.80;0.50;;;;;;;19.28;69.54;101573.72;20880792;28;20047;-75
2022/07/28 17:13:17;;;;;;;1.02;0.63;;;;;;;19.26;69.92;101564.88;20879835;28;20049;-75
2022/07/28 17:23:19;;;;;;;1.38;0.50;;;;;;;19.23;70.08;101557.03;20891974;28;20056;-75
2022/07/28 17:33:20;;;;;;;1.65;0.60;;;;;;;19.22;70.72;101560.72;20869689;28;20051;-76
2022/07/28 17:43:22;;;;;;;2.90;0.80;;;;;;;19.15;71.00;101547.88;20879069;28;20118;-76
2022/07/28 17:53:24;;;;;;;4.00;1.63;;;;;;;19.20;72.80;101554.59;20886886;28;20084;-75
2022/07/28 18:03:27;;;;;;;5.22;1.10;;;;;;;19.20;73.69;101551.03;20916739;28;20040;-75
2022/07/28 18:13:28;;;;;;;4.95;1.05;;;;;;;19.20;74.28;101551.91;20908166;28;20463;-75
2022/07/28 18:23:30;;;;;;;1.63;0.70;;;;;;;19.19;74.34;101549.31;20912358;28;20049;-76
2022/07/28 18:33:31;;;;;;;2.47;0.80;;;;;;;19.18;74.84;101543.09;20908056;28;20053;-75
2022/07/28 18:43:33;;;;;;;4.47;0.80;;;;;;;19.05;75.68;101510.88;20931462;28;20079;-75
2022/07/28 18:53:38;;;;;;;3.83;1.00;;;;;;;19.32;75.17;101543.75;20941626;28;20432;-74
2022/07/28 19:03:39;;;;;;;2.08;0.90;;;;;;;19.31;75.43;101547.44;20946251;28;20500;-74
2022/07/28 19:13:41;;;;;;;2.30;0.85;;;;;;;19.28;75.40;101556.66;20974601;28;20123;-75
2022/07/28 19:23:42;;;;;;;1.40;0.60;;;;;;;18.90;75.30;101501.34;20930631;28;20045;-74
2022/07/28 19:33:44;;;;;;;1.58;0.70;;;;;;;19.22;75.18;101566.13;20883648;28;20060;-74
2022/07/28 19:43:45;;;;;;;3.03;0.80;;;;;;;19.20;74.99;101578.91;20947298;28;20048;-74
2022/07/28 19:53:47;;;;;;;0.98;0.63;;;;;;;19.20;74.95;101588.81;20914691;28;20051;-75
2022/07/28 20:03:49;;;;;;;1.50;0.80;;;;;;;19.05;74.79;101580.19;20884083;28;20071;-75
2022/07/28 20:14:10;;;;;;;1.40;0.52;;;;;;;18.91;74.64;101565.94;20939030;28;20131;-74
2022/07/28 20:24:14;;;;;;;1.85;0.80;;;;;;;19.14;74.60;101606.41;21006993;28;20051;-75
2022/07/28 20:34:16;;;;;;;0.75;0.60;;;;;;;19.14;74.71;101622.59;20890043;28;20494;-74
2022/07/28 20:44:18;;;;;;;0.40;0.40;;;;;;;19.13;74.46;101618.19;20900426;28;20060;-74
2022/07/28 20:54:31;;;;;;;1.45;0.60;;;;;;;19.12;74.36;101619.16;20962372;28;20060;-74
2022/07/28 21:04:32;;;;;;;0.88;0.50;;;;;;;19.11;74.31;101636.34;20896300;28;20049;-74
2022/07/28 21:14:34;;;;;;;0.88;0.50;;;;;;;19.10;74.40;101637.34;20925581;28;20068;-75
2022/07/28 21:24:36;;;;;;;1.05;0.70;;;;;;;18.98;74.06;101607.66;20971848;28;20078;-74
2022/07/28 21:34:37;;;;;;;1.15;0.50;;;;;;;19.09;73.93;101649.13;21028206;28;20048;-74
2022/07/28 21:44:39;;;;;;;0.65;0.50;;;;;;;19.08;73.84;101645.53;20959739;28;20045;-75
2022/07/28 21:54:41;;;;;;;0.68;0.43;;;;;;;19.08;73.94;101647.41;20950408;28;20059;-74
2022/07/28 22:04:42;;;;;;;1.77;0.50;;;;;;;18.87;73.98;101614.91;20957674;28;20043;-74
2022/07/28 22:14:44;;;;;;;1.08;0.50;;;;;;;18.98;73.65;101629.25;20978206;28;20062;-75
2022/07/28 22:24:45;;;;;;;0.70;0.65;;;;;;;19.06;73.81;101642.13;21015030;28;20052;-75
2022/07/28 22:34:47;;;;;;;0.70;0.50;;;;;;;19.06;73.92;101643.97;21046706;28;20052;-76
2022/07/28 22:44:48;;;;;;;0.60;0.50;;;;;;;19.05;73.88;101635.00;20988104;28;20049;-74
2022/07/28 22:54:50;;;;;;;1.45;0.50;;;;;;;19.05;73.78;101636.84;20946219;28;20098;-75
2022/07/28 23:05:09;;;;;;;0.93;0.65;;;;;;;19.05;73.70;101636.84;20969534;28;20072;-74
2022/07/28 23:15:11;;;;;;;0.38;0.38;;;;;;;19.04;73.96;101621.66;20992531;28;20044;-75
2022/07/28 23:25:12;;;;;;;1.45;0.77;;;;;;;19.04;73.87;101637.84;20978124;28;20047;-75
2022/07/28 23:35:14;;;;;;;1.05;0.50;;;;;;;18.87;73.84;101620.31;21021510;28;20451;-75
2022/07/28 23:45:16;;;;;;;0.68;0.43;;;;;;;19.02;73.83;101629.84;20966526;28;20413;-75
2022/07/28 23:55:17;;;;;;;0.98;0.60;;;;;;;19.02;73.93;101631.72;20973600;28;20464;-75
